createdAt,value
2023-03-16T00:01:06.231Z,3.35
2023-03-16T00:03:35.010Z,3.34
2023-03-16T00:06:03.021Z,3.35
2023-03-16T00:08:32.310Z,3.31
2023-03-16T00:11:00.187Z,3.33
2023-03-16T00:13:28.123Z,3.39
2023-03-16T00:15:57.347Z,3.40
2023-03-16T00:18:27.306Z,3.41
2023-03-16T00:20:56.885Z,3.41
2023-03-16T00:23:27.240Z,3.40
2023-03-16T00:25:56.979Z,3.38
2023-03-16T00:28:25.219Z,3.37
2023-03-16T00:30:53.258Z,3.35
2023-03-16T00:33:21.162Z,3.29
2023-03-16T00:35:50.236Z,3.22
2023-03-16T00:38:18.873Z,3.16
2023-03-16T00:40:47.235Z,3.17
2023-03-16T00:43:18.686Z,3.17
2023-03-16T00:45:47.031Z,3.11
2023-03-16T00:48:14.982Z,3.07
2023-03-16T00:50:43.427Z,3.11
2023-03-16T00:53:11.818Z,3.10
2023-03-16T00:55:39.733Z,3.12
2023-03-16T00:58:07.637Z,3.13
2023-03-16T01:00:37.024Z,3.11
2023-03-16T01:03:05.059Z,3.09
2023-03-16T01:05:33.773Z,3.09
2023-03-16T01:08:02.822Z,3.08
2023-03-16T01:10:30.713Z,3.04
2023-03-16T01:12:58.656Z,3.03
2023-03-16T01:15:26.586Z,3.01
2023-03-16T01:17:56.983Z,2.85
2023-03-16T01:20:24.984Z,3.01
2023-03-16T01:22:53.443Z,3.01
2023-03-16T01:25:21.642Z,3.02
2023-03-16T01:27:49.492Z,3.03
2023-03-16T01:30:17.465Z,3.02
2023-03-16T01:32:46.026Z,3.01
2023-03-16T01:35:16.294Z,3.07
2023-03-16T01:37:44.385Z,3.07
2023-03-16T01:40:17.874Z,3.07
2023-03-16T01:42:47.429Z,3.10
2023-03-16T01:45:53.857Z,3.11
2023-03-16T01:48:26.110Z,3.11
2023-03-16T01:50:57.624Z,3.04
2023-03-16T01:53:26.666Z,3.03
2023-03-16T01:55:55.592Z,2.99
2023-03-16T01:58:24.051Z,2.94
2023-03-16T02:00:51.982Z,2.97
2023-03-16T02:03:23.910Z,2.96
2023-03-16T02:06:10.837Z,2.93
2023-03-16T02:08:45.288Z,2.93
2023-03-16T02:11:18.029Z,2.95
2023-03-16T02:14:10.254Z,2.94
2023-03-16T02:16:38.809Z,2.85
2023-03-16T02:19:13.110Z,2.85
2023-03-16T02:21:49.994Z,2.84
2023-03-16T02:24:18.008Z,2.80
2023-03-16T02:26:50.065Z,2.78
2023-03-16T02:29:45.093Z,2.76
2023-03-16T02:32:15.467Z,2.75
2023-03-16T02:34:44.095Z,2.83
2023-03-16T02:37:13.937Z,2.88
2023-03-16T02:39:44.106Z,2.89
2023-03-16T02:42:17.858Z,2.85
2023-03-16T02:44:49.756Z,2.86
2023-03-16T02:47:28.616Z,2.79
2023-03-16T02:49:56.672Z,2.83
2023-03-16T02:52:24.622Z,2.82
2023-03-16T02:54:52.653Z,2.82
2023-03-16T02:57:21.151Z,2.82
2023-03-16T02:59:50.609Z,2.84
2023-03-16T03:02:18.912Z,2.84
2023-03-16T03:04:47.039Z,2.84
2023-03-16T03:07:15.797Z,2.79
2023-03-16T03:09:58.901Z,2.84
2023-03-16T03:12:26.972Z,2.83
2023-03-16T03:14:57.892Z,2.78
2023-03-16T03:17:29.997Z,2.74
2023-03-16T03:19:59.702Z,2.75
2023-03-16T03:22:28.035Z,2.76
2023-03-16T03:24:55.932Z,2.89
2023-03-16T03:27:24.567Z,3.01
2023-03-16T03:29:54.523Z,3.10
2023-03-16T03:32:23.766Z,3.13
2023-03-16T03:34:52.943Z,3.15
2023-03-16T03:37:20.829Z,3.18
2023-03-16T03:39:49.660Z,3.24
2023-03-16T03:42:18.350Z,3.18
2023-03-16T03:44:46.345Z,3.16
2023-03-16T03:47:14.323Z,3.07
2023-03-16T03:49:43.590Z,3.17
2023-03-16T03:52:12.267Z,3.22
2023-03-16T03:54:40.232Z,3.25
2023-03-16T03:57:14.078Z,3.20
2023-03-16T03:59:43.954Z,3.22
2023-03-16T04:02:30.688Z,3.23
2023-03-16T04:05:00.313Z,3.19
2023-03-16T04:07:29.724Z,3.09
2023-03-16T04:10:02.738Z,3.05
2023-03-16T04:12:38.440Z,3.12
2023-03-16T04:15:09.411Z,3.10
2023-03-16T04:17:47.103Z,3.10
2023-03-16T04:20:19.522Z,3.16
2023-03-16T04:22:48.360Z,3.18
2023-03-16T04:25:18.896Z,3.19
2023-03-16T04:27:47.588Z,3.16
2023-03-16T04:30:17.633Z,3.12
2023-03-16T04:32:51.387Z,2.99
2023-03-16T04:35:23.161Z,2.89
2023-03-16T04:37:55.230Z,2.78
2023-03-16T04:40:30.367Z,2.76
2023-03-16T04:43:07.112Z,2.74
2023-03-16T04:45:36.064Z,2.71
2023-03-16T04:48:04.096Z,2.75
2023-03-16T04:50:33.691Z,2.84
2023-03-16T04:53:01.578Z,2.94
2023-03-16T04:55:31.031Z,2.99
2023-03-16T04:57:59.395Z,2.99
2023-03-16T05:00:29.919Z,3.01
2023-03-16T05:03:05.577Z,2.96
2023-03-16T05:05:35.307Z,2.96
2023-03-16T05:08:06.037Z,2.83
2023-03-16T05:10:36.252Z,2.75
2023-03-16T05:13:04.252Z,2.75
2023-03-16T05:15:33.323Z,2.79
2023-03-16T05:18:16.377Z,2.84
2023-03-16T05:20:46.394Z,2.88
2023-03-16T05:23:16.756Z,2.90
2023-03-16T05:25:48.058Z,2.94
2023-03-16T05:28:17.672Z,2.97
2023-03-16T05:31:04.422Z,3.03
2023-03-16T05:33:39.340Z,3.05
2023-03-16T05:36:13.123Z,3.06
2023-03-16T05:38:43.770Z,3.07
2023-03-16T05:41:15.518Z,3.09
2023-03-16T05:44:04.378Z,2.99
2023-03-16T05:46:46.251Z,2.97
2023-03-16T05:49:14.238Z,2.91
2023-03-16T05:51:43.606Z,2.73
2023-03-16T05:54:11.609Z,2.74
2023-03-16T05:56:45.670Z,2.76
2023-03-16T05:59:13.802Z,2.65
2023-03-16T06:01:43.214Z,2.70
2023-03-16T06:04:11.758Z,2.78
2023-03-16T06:06:43.578Z,2.92
2023-03-16T06:09:18.386Z,2.99
2023-03-16T06:11:46.768Z,3.10
2023-03-16T06:14:17.170Z,3.17
2023-03-16T06:16:45.817Z,3.21
2023-03-16T06:19:14.967Z,3.22
2023-03-16T06:21:45.123Z,3.09
2023-03-16T06:24:13.798Z,2.99
2023-03-16T06:26:41.831Z,3.04
2023-03-16T06:29:12.964Z,3.05
2023-03-16T06:31:42.257Z,3.12
2023-03-16T06:34:11.611Z,3.21
2023-03-16T06:36:40.118Z,3.31
2023-03-16T06:39:14.684Z,3.42
2023-03-16T06:41:46.241Z,3.45
2023-03-16T06:44:16.582Z,3.47
2023-03-16T06:46:57.266Z,3.53
2023-03-16T06:49:25.100Z,3.46
2023-03-16T06:51:53.923Z,3.49
2023-03-16T06:54:23.816Z,3.49
2023-03-16T06:56:52.397Z,3.45
2023-03-16T06:59:20.866Z,3.51
2023-03-16T07:01:50.314Z,3.60
2023-03-16T07:04:18.371Z,3.65
2023-03-16T07:06:46.474Z,3.81
2023-03-16T07:09:14.377Z,3.88
2023-03-16T07:11:44.808Z,3.99
2023-03-16T07:14:12.812Z,4.03
2023-03-16T07:16:41.631Z,4.06
2023-03-16T07:19:11.507Z,4.10
2023-03-16T07:21:40.872Z,4.10
2023-03-16T07:24:16.333Z,4.14
2023-03-16T07:26:46.349Z,4.14
2023-03-16T07:29:21.952Z,4.11
2023-03-16T07:31:50.210Z,4.15
2023-03-16T07:34:21.566Z,4.25
2023-03-16T07:36:55.237Z,4.29
2023-03-16T07:39:25.663Z,4.33
2023-03-16T07:42:01.535Z,4.21
2023-03-16T07:44:43.478Z,4.39
2023-03-16T07:47:15.696Z,4.44
2023-03-16T07:49:45.273Z,4.50
2023-03-16T07:52:14.582Z,4.58
2023-03-16T07:54:43.608Z,4.69
2023-03-16T07:57:14.145Z,4.80
2023-03-16T07:59:45.024Z,4.81
2023-03-16T08:02:18.286Z,4.81
2023-03-16T08:04:47.306Z,4.85
2023-03-16T08:07:17.096Z,4.91
2023-03-16T08:09:59.813Z,5.04
2023-03-16T08:12:34.931Z,5.17
2023-03-16T08:15:03.056Z,5.26
2023-03-16T08:17:34.179Z,5.30
2023-03-16T08:20:08.995Z,5.17
2023-03-16T08:22:37.498Z,5.14
2023-03-16T08:25:10.387Z,5.06
2023-03-16T08:27:42.899Z,5.05
2023-03-16T08:30:13.049Z,4.99
2023-03-16T08:32:45.261Z,4.93
2023-03-16T08:35:16.746Z,4.93
2023-03-16T08:37:46.240Z,4.93
2023-03-16T08:40:16.034Z,4.98
2023-03-16T08:42:46.813Z,4.96
2023-03-16T08:45:15.262Z,4.98
2023-03-16T08:47:45.539Z,5.02
2023-03-16T08:50:15.532Z,5.08
2023-03-16T08:52:43.519Z,5.06
2023-03-16T08:55:13.287Z,5.17
2023-03-16T08:57:41.190Z,5.26
2023-03-16T09:00:13.839Z,5.29
2023-03-16T09:02:43.127Z,5.37
2023-03-16T09:05:12.988Z,5.44
2023-03-16T09:07:40.863Z,5.35
2023-03-16T09:10:13.339Z,5.39
2023-03-16T09:12:42.688Z,5.50
2023-03-16T09:15:13.935Z,5.59
2023-03-16T09:17:43.051Z,5.58
2023-03-16T09:20:22.521Z,5.63
2023-03-16T09:22:54.568Z,5.72
2023-03-16T09:25:22.640Z,5.76
2023-03-16T09:27:50.714Z,5.79
2023-03-16T09:30:20.096Z,5.82
2023-03-16T09:32:49.018Z,5.76
2023-03-16T09:35:17.295Z,5.78
2023-03-16T09:38:01.038Z,5.82
2023-03-16T09:40:33.531Z,5.84
2023-03-16T09:43:19.140Z,5.89
2023-03-16T09:45:53.849Z,5.94
2023-03-16T09:48:22.552Z,5.99
2023-03-16T09:50:52.784Z,5.97
2023-03-16T09:53:26.814Z,6.02
2023-03-16T09:55:59.565Z,6.08
2023-03-16T09:58:28.298Z,6.11
2023-03-16T10:01:07.645Z,6.30
2023-03-16T10:04:00.733Z,6.45
2023-03-16T10:06:29.426Z,6.46
2023-03-16T10:09:06.976Z,6.46
2023-03-16T10:11:39.510Z,6.42
2023-03-16T10:14:17.727Z,6.39
2023-03-16T10:16:51.495Z,6.43
2023-03-16T10:19:24.498Z,6.44
2023-03-16T10:21:57.869Z,6.51
2023-03-16T10:24:39.398Z,6.48
2023-03-16T10:27:09.310Z,6.46
2023-03-16T10:29:38.643Z,6.51
2023-03-16T10:32:16.487Z,6.42
2023-03-16T10:34:49.766Z,6.42
2023-03-16T10:37:17.673Z,6.48
2023-03-16T10:39:45.647Z,6.56
2023-03-16T10:42:18.640Z,6.62
2023-03-16T10:44:46.695Z,6.62
2023-03-16T10:47:22.786Z,6.64
2023-03-16T10:49:51.482Z,6.69
2023-03-16T10:52:24.741Z,6.67
2023-03-16T10:54:55.967Z,6.62
2023-03-16T10:57:31.156Z,6.66
2023-03-16T11:00:15.970Z,6.72
2023-03-16T11:02:45.750Z,6.74
2023-03-16T11:05:26.258Z,6.76
2023-03-16T11:08:00.620Z,6.74
2023-03-16T11:10:33.344Z,6.72
2023-03-16T11:13:10.799Z,6.73
2023-03-16T11:15:45.543Z,6.75
2023-03-16T11:18:26.807Z,6.77
2023-03-16T11:20:55.522Z,6.84
2023-03-16T11:23:31.417Z,6.81
2023-03-16T11:26:02.913Z,6.87
2023-03-16T11:28:37.626Z,6.94
2023-03-16T11:31:16.797Z,6.99
2023-03-16T11:33:47.195Z,6.98
2023-03-16T11:36:29.902Z,7.03
2023-03-16T11:39:09.050Z,7.02
2023-03-16T11:41:53.451Z,6.99
2023-03-16T11:44:32.794Z,7.05
2023-03-16T11:47:07.333Z,7.07
2023-03-16T11:49:49.531Z,7.05
2023-03-16T11:52:26.477Z,7.08
2023-03-16T11:55:07.524Z,7.11
2023-03-16T11:57:46.994Z,7.17
2023-03-16T12:00:26.163Z,7.24
2023-03-16T12:03:14.996Z,7.27
2023-03-16T12:05:55.153Z,7.32
2023-03-16T12:08:40.975Z,7.23
2023-03-16T12:11:14.750Z,7.23
2023-03-16T12:14:00.339Z,7.29
2023-03-16T12:16:48.249Z,7.41
2023-03-16T12:19:22.965Z,7.54
2023-03-16T12:22:02.557Z,7.62
2023-03-16T12:24:36.634Z,7.74
2023-03-16T12:27:06.747Z,7.78
2023-03-16T12:29:42.841Z,7.82
2023-03-16T12:32:14.356Z,7.89
2023-03-16T12:34:48.666Z,7.97
2023-03-16T12:37:29.539Z,8.02
2023-03-16T12:40:09.208Z,8.05
2023-03-16T12:42:49.605Z,8.08
2023-03-16T12:45:24.626Z,8.19
2023-03-16T12:48:00.174Z,8.33
2023-03-16T12:50:28.296Z,8.41
2023-03-16T12:52:57.611Z,8.46
2023-03-16T12:55:28.305Z,8.56
2023-03-16T12:58:02.203Z,8.65
2023-03-16T13:00:37.736Z,8.69
2023-03-16T13:03:07.265Z,8.77
2023-03-16T13:05:37.318Z,8.88
2023-03-16T13:08:10.782Z,8.97
2023-03-16T13:10:39.914Z,8.99
2023-03-16T13:13:13.000Z,9.09
2023-03-16T13:15:41.511Z,9.22
2023-03-16T13:18:24.780Z,9.27
2023-03-16T13:20:58.718Z,9.27
2023-03-16T13:23:46.786Z,9.37
2023-03-16T13:26:17.082Z,9.49
2023-03-16T13:28:51.357Z,9.50
2023-03-16T13:31:27.237Z,9.62
2023-03-16T13:33:59.928Z,9.61
2023-03-16T13:36:29.757Z,9.65
2023-03-16T13:39:05.451Z,9.76
2023-03-16T13:41:34.266Z,9.75
2023-03-16T13:44:02.107Z,9.83
2023-03-16T13:46:31.672Z,10.02
2023-03-16T13:49:01.158Z,10.04
2023-03-16T13:51:32.080Z,10.16
2023-03-16T13:54:06.348Z,10.14
2023-03-16T13:56:35.077Z,10.12
2023-03-16T13:59:03.493Z,10.21
2023-03-16T14:01:33.229Z,10.34
2023-03-16T14:04:08.670Z,10.38
2023-03-16T14:06:37.846Z,10.33
2023-03-16T14:09:14.028Z,10.43
2023-03-16T14:11:44.578Z,10.50
2023-03-16T14:14:16.989Z,10.52
2023-03-16T14:16:45.666Z,10.49
2023-03-16T14:19:20.306Z,10.51
2023-03-16T14:21:48.288Z,10.49
2023-03-16T14:24:29.828Z,10.61
2023-03-16T14:26:58.733Z,10.74
2023-03-16T14:29:30.381Z,10.76
2023-03-16T14:31:59.898Z,10.89
2023-03-16T14:34:33.911Z,10.87
2023-03-16T14:37:12.696Z,10.92
2023-03-16T14:39:42.336Z,10.94
2023-03-16T14:42:19.863Z,10.84
2023-03-16T14:44:48.960Z,10.87
2023-03-16T14:47:23.671Z,11.07
2023-03-16T14:49:52.375Z,11.24
2023-03-16T14:52:27.151Z,11.38
2023-03-16T14:54:56.811Z,11.35
2023-03-16T14:57:25.929Z,11.34
2023-03-16T14:59:53.982Z,11.32
2023-03-16T15:02:26.643Z,11.13
2023-03-16T15:04:55.629Z,11.22
2023-03-16T15:07:26.520Z,11.38
2023-03-16T15:09:57.332Z,11.53
2023-03-16T15:12:26.133Z,11.49
2023-03-16T15:15:11.560Z,11.38
2023-03-16T15:17:39.491Z,11.27
2023-03-16T15:20:08.458Z,11.27
2023-03-16T15:22:38.676Z,11.39
2023-03-16T15:25:21.304Z,11.51
2023-03-16T15:27:49.662Z,11.41
2023-03-16T15:30:19.217Z,11.41
2023-03-16T15:32:47.623Z,11.37
2023-03-16T15:35:15.983Z,11.45
2023-03-16T15:37:43.943Z,11.30
2023-03-16T15:40:19.326Z,11.33
2023-03-16T15:42:47.477Z,11.29
2023-03-16T15:45:18.610Z,11.29
2023-03-16T15:47:48.437Z,11.18
2023-03-16T15:50:18.215Z,11.15
2023-03-16T15:52:48.532Z,11.03
2023-03-16T15:55:21.609Z,11.01
2023-03-16T15:57:51.306Z,11.06
2023-03-16T16:00:29.720Z,11.08
2023-03-16T16:02:59.174Z,10.99
2023-03-16T16:05:27.871Z,10.85
2023-03-16T16:07:56.459Z,10.67
2023-03-16T16:10:26.911Z,10.63
2023-03-16T16:12:57.913Z,10.62
2023-03-16T16:15:29.500Z,10.57
2023-03-16T16:18:19.721Z,10.30
2023-03-16T16:20:46.462Z,10.18
2023-03-16T16:23:14.647Z,10.08
2023-03-16T16:25:43.992Z,9.87
2023-03-16T16:28:16.520Z,9.58
2023-03-16T16:30:44.927Z,9.29
2023-03-16T16:33:24.540Z,9.07
2023-03-16T16:35:53.022Z,8.81
2023-03-16T16:38:21.113Z,8.68
2023-03-16T16:40:51.227Z,8.49
2023-03-16T16:43:31.255Z,8.42
2023-03-16T16:46:00.076Z,8.25
2023-03-16T16:48:32.967Z,8.18
2023-03-16T16:51:02.177Z,8.10
2023-03-16T16:53:31.061Z,8.03
2023-03-16T16:56:00.487Z,7.90
2023-03-16T16:58:28.545Z,7.78
2023-03-16T17:00:58.936Z,7.68
2023-03-16T17:03:28.950Z,7.58
2023-03-16T17:05:58.901Z,7.52
2023-03-16T17:08:27.555Z,7.44
2023-03-16T17:10:55.788Z,7.35
2023-03-16T17:13:32.179Z,7.25
2023-03-16T17:16:00.224Z,7.21
2023-03-16T17:18:28.614Z,7.16
2023-03-16T17:20:56.981Z,7.11
2023-03-16T17:23:31.238Z,7.04
2023-03-16T17:26:01.762Z,7.00
2023-03-16T17:28:36.180Z,6.94
2023-03-16T17:31:04.273Z,6.91
2023-03-16T17:33:32.336Z,6.85
2023-03-16T17:36:01.881Z,6.81
2023-03-16T17:38:29.848Z,6.75
2023-03-16T17:40:57.864Z,6.68
2023-03-16T17:43:25.825Z,6.63
2023-03-16T17:45:55.221Z,6.56
2023-03-16T17:48:25.451Z,6.54
2023-03-16T17:50:53.368Z,6.58
2023-03-16T17:53:21.948Z,6.64
2023-03-16T17:55:49.982Z,6.60
2023-03-16T17:58:27.861Z,6.62
2023-03-16T18:00:58.467Z,6.57
2023-03-16T18:03:30.002Z,6.56
2023-03-16T18:05:58.613Z,6.64
2023-03-16T18:08:28.889Z,6.62
2023-03-16T18:11:04.452Z,6.54
2023-03-16T18:13:35.109Z,6.60
2023-03-16T18:16:06.728Z,6.58
2023-03-16T18:18:37.778Z,6.53
2023-03-16T18:21:06.022Z,6.50
2023-03-16T18:23:35.757Z,6.48
2023-03-16T18:26:04.446Z,6.47
2023-03-16T18:28:33.093Z,6.46
2023-03-16T18:31:01.530Z,6.40
2023-03-16T18:33:32.798Z,6.35
2023-03-16T18:36:02.774Z,6.32
2023-03-16T18:38:33.312Z,6.23
2023-03-16T18:41:03.116Z,6.20
2023-03-16T18:43:31.067Z,6.14
2023-03-16T18:45:58.965Z,6.07
2023-03-16T18:48:31.343Z,6.00
2023-03-16T18:50:59.595Z,5.95
2023-03-16T18:53:29.201Z,5.96
2023-03-16T18:55:57.834Z,5.89
2023-03-16T18:58:25.797Z,5.87
2023-03-16T19:00:56.424Z,5.84
2023-03-16T19:03:27.562Z,5.81
2023-03-16T19:05:59.350Z,5.87
2023-03-16T19:08:29.170Z,5.92
2023-03-16T19:10:59.412Z,5.92
2023-03-16T19:13:27.843Z,5.92
2023-03-16T19:15:57.846Z,5.87
2023-03-16T19:18:27.064Z,5.81
2023-03-16T19:20:57.305Z,5.76
2023-03-16T19:23:29.267Z,5.47
2023-03-16T19:25:57.951Z,5.35
2023-03-16T19:28:29.131Z,5.10
2023-03-16T19:30:57.726Z,5.00
2023-03-16T19:33:28.058Z,4.93
2023-03-16T19:35:58.550Z,4.88
2023-03-16T19:38:27.424Z,4.84
2023-03-16T19:40:57.807Z,4.95
2023-03-16T19:43:27.666Z,4.99
2023-03-16T19:45:56.514Z,5.08
2023-03-16T19:48:30.390Z,5.19
2023-03-16T19:51:00.043Z,5.25
2023-03-16T19:53:27.995Z,5.21
2023-03-16T19:55:57.082Z,5.20
2023-03-16T19:58:32.381Z,5.25
2023-03-16T20:01:01.023Z,5.19
2023-03-16T20:03:29.432Z,5.20
2023-03-16T20:05:57.319Z,5.18
2023-03-16T20:08:28.593Z,5.07
2023-03-16T20:11:01.871Z,4.86
2023-03-16T20:13:31.355Z,4.80
2023-03-16T20:15:59.372Z,4.74
2023-03-16T20:18:28.709Z,4.63
2023-03-16T20:20:57.120Z,4.64
2023-03-16T20:23:28.020Z,4.64
2023-03-16T20:26:01.370Z,4.56
2023-03-16T20:28:35.292Z,4.58
2023-03-16T20:31:03.666Z,4.57
2023-03-16T20:33:33.335Z,4.31
2023-03-16T20:36:01.330Z,4.12
2023-03-16T20:38:30.620Z,4.08
2023-03-16T20:40:58.856Z,4.15
2023-03-16T20:43:28.576Z,4.23
2023-03-16T20:45:58.384Z,4.30
2023-03-16T20:48:26.386Z,4.33
2023-03-16T20:50:54.985Z,4.33
2023-03-16T20:53:23.400Z,4.25
2023-03-16T20:55:54.564Z,4.27
2023-03-16T20:58:25.441Z,4.27
2023-03-16T21:00:55.835Z,4.28
2023-03-16T21:03:26.753Z,4.03
2023-03-16T21:05:55.445Z,3.67
2023-03-16T21:08:23.658Z,3.58
2023-03-16T21:10:55.049Z,3.74
2023-03-16T21:13:26.834Z,3.86
2023-03-16T21:15:57.276Z,3.81
2023-03-16T21:18:25.427Z,3.91
2023-03-16T21:20:56.100Z,4.02
2023-03-16T21:23:24.852Z,4.10
2023-03-16T21:25:56.785Z,4.15
2023-03-16T21:28:26.688Z,4.14
2023-03-16T21:30:56.427Z,4.20
2023-03-16T21:33:30.042Z,4.25
2023-03-16T21:35:58.014Z,4.26
2023-03-16T21:38:26.473Z,4.25
2023-03-16T21:40:56.739Z,4.26
2023-03-16T21:43:25.160Z,4.29
2023-03-16T21:45:54.079Z,4.29
2023-03-16T21:48:24.842Z,4.26
2023-03-16T21:50:53.769Z,4.25
2023-03-16T21:53:24.187Z,4.10
2023-03-16T21:55:53.377Z,3.97
2023-03-16T21:58:24.331Z,3.93
2023-03-16T22:00:53.691Z,3.93
2023-03-16T22:03:33.007Z,3.91
2023-03-16T22:06:06.896Z,3.95
2023-03-16T22:08:35.374Z,3.88
2023-03-16T22:11:03.308Z,3.92
2023-03-16T22:13:34.577Z,3.94
2023-03-16T22:16:03.584Z,3.92
2023-03-16T22:18:34.145Z,3.77
2023-03-16T22:21:04.604Z,3.72
2023-03-16T22:23:34.670Z,3.66
2023-03-16T22:26:03.266Z,3.56
2023-03-16T22:28:33.149Z,3.45
2023-03-16T22:31:03.553Z,3.33
2023-03-16T22:33:34.716Z,3.30
2023-03-16T22:36:08.186Z,3.22
2023-03-16T22:38:36.769Z,3.03
2023-03-16T22:41:04.883Z,2.92
2023-03-16T22:43:36.656Z,2.93
2023-03-16T22:46:04.918Z,2.86
2023-03-16T22:48:33.116Z,2.93
2023-03-16T22:51:04.730Z,3.12
2023-03-16T22:53:37.881Z,3.30
2023-03-16T22:56:06.574Z,3.40
2023-03-16T22:58:39.000Z,3.27
2023-03-16T23:01:17.154Z,3.04
2023-03-16T23:03:45.957Z,3.04
2023-03-16T23:06:18.116Z,3.03
2023-03-16T23:08:46.400Z,2.94
2023-03-16T23:11:23.675Z,3.06
2023-03-16T23:13:54.195Z,2.91
2023-03-16T23:16:24.600Z,2.90
2023-03-16T23:18:53.217Z,2.79
2023-03-16T23:21:23.001Z,2.83
2023-03-16T23:24:02.953Z,2.70
2023-03-16T23:26:32.060Z,2.62
2023-03-16T23:29:01.650Z,2.59
2023-03-16T23:31:30.678Z,2.70
2023-03-16T23:33:58.972Z,2.86
2023-03-16T23:36:27.211Z,2.95
2023-03-16T23:38:55.178Z,2.99
2023-03-16T23:41:24.813Z,3.02
2023-03-16T23:43:54.118Z,2.86
2023-03-16T23:46:25.826Z,2.81
2023-03-16T23:48:56.476Z,2.83
2023-03-16T23:51:28.219Z,2.87
2023-03-16T23:53:57.387Z,2.83
2023-03-16T23:56:26.267Z,2.75
2023-03-16T23:58:54.764Z,2.69
